createdAt,value
2022-12-12T00:00:32.587Z,0.93
2022-12-12T00:02:59.033Z,0.96
2022-12-12T00:05:25.544Z,0.95
2022-12-12T00:07:52.214Z,0.96
2022-12-12T00:10:18.779Z,0.89
2022-12-12T00:12:45.169Z,0.89
2022-12-12T00:15:12.427Z,0.90
2022-12-12T00:17:39.197Z,0.93
2022-12-12T00:20:06.088Z,0.93
2022-12-12T00:22:32.924Z,0.92
2022-12-12T00:24:59.307Z,0.92
2022-12-12T00:27:25.682Z,0.87
2022-12-12T00:29:55.302Z,0.81
2022-12-12T00:32:22.800Z,0.89
2022-12-12T00:34:49.525Z,0.88
2022-12-12T00:37:16.260Z,0.87
2022-12-12T00:39:43.087Z,0.84
2022-12-12T00:42:09.595Z,0.87
2022-12-12T00:44:36.120Z,0.87
2022-12-12T00:47:02.926Z,0.88
2022-12-12T00:49:30.223Z,0.86
2022-12-12T00:51:56.581Z,0.88
2022-12-12T00:54:23.636Z,0.86
2022-12-12T00:56:50.000Z,0.88
2022-12-12T00:59:16.425Z,0.80
2022-12-12T01:01:44.859Z,0.85
2022-12-12T01:04:11.498Z,0.81
2022-12-12T01:06:38.240Z,0.89
2022-12-12T01:09:04.607Z,0.84
2022-12-12T01:11:31.244Z,0.86
2022-12-12T01:13:57.669Z,0.84
2022-12-12T01:16:24.248Z,0.86
2022-12-12T01:18:50.966Z,0.87
2022-12-12T01:21:18.744Z,0.86
2022-12-12T01:23:45.364Z,0.81
2022-12-12T01:26:15.922Z,0.83
2022-12-12T01:28:42.813Z,0.83
2022-12-12T01:31:10.149Z,0.84
2022-12-12T01:33:37.161Z,0.86
2022-12-12T01:36:04.154Z,0.82
2022-12-12T01:38:30.619Z,0.84
2022-12-12T01:40:57.033Z,0.83
2022-12-12T01:43:24.558Z,0.80
2022-12-12T01:46:00.171Z,0.83
2022-12-12T01:48:33.697Z,0.84
2022-12-12T01:51:03.153Z,0.88
2022-12-12T01:53:31.472Z,0.86
2022-12-12T01:56:00.270Z,0.81
2022-12-12T01:58:27.145Z,0.78
2022-12-12T02:00:53.582Z,0.65
2022-12-12T02:03:20.066Z,0.55
2022-12-12T02:05:53.323Z,0.49
2022-12-12T02:08:22.392Z,0.39
2022-12-12T02:10:49.753Z,0.34
2022-12-12T02:13:24.203Z,0.33
2022-12-12T02:16:26.782Z,0.33
2022-12-12T02:19:30.701Z,0.24
2022-12-12T02:22:04.029Z,0.33
2022-12-12T02:25:12.539Z,0.34
2022-12-12T02:27:51.213Z,0.34
2022-12-12T02:30:36.443Z,0.34
2022-12-12T02:33:25.784Z,0.27
2022-12-12T02:36:01.686Z,0.22
2022-12-12T02:38:37.133Z,0.22
2022-12-12T02:41:31.548Z,0.14
2022-12-12T02:44:33.716Z,0.21
2022-12-12T02:47:03.258Z,0.17
2022-12-12T02:49:38.177Z,0.24
2022-12-12T02:52:05.950Z,0.24
2022-12-12T02:54:32.268Z,0.17
2022-12-12T02:57:00.566Z,0.14
2022-12-12T02:59:35.204Z,0.18
2022-12-12T03:02:42.661Z,0.16
2022-12-12T03:05:56.039Z,0.17
2022-12-12T03:08:34.765Z,0.12
2022-12-12T03:11:06.016Z,0.13
2022-12-12T03:13:52.728Z,0.16
2022-12-12T03:16:30.022Z,0.24
2022-12-12T03:18:57.434Z,0.22
2022-12-12T03:21:23.800Z,0.25
2022-12-12T03:23:56.615Z,0.22
2022-12-12T03:26:47.363Z,0.28
2022-12-12T03:29:24.244Z,0.30
2022-12-12T03:31:54.765Z,0.27
2022-12-12T03:34:25.953Z,0.24
2022-12-12T03:36:55.676Z,0.23
2022-12-12T03:39:52.595Z,0.30
2022-12-12T03:42:27.191Z,0.32
2022-12-12T03:45:04.043Z,0.30
2022-12-12T03:47:40.898Z,0.35
2022-12-12T03:50:26.051Z,0.33
2022-12-12T03:53:02.699Z,0.30
2022-12-12T03:55:48.370Z,0.39
2022-12-12T03:58:26.915Z,0.41
2022-12-12T04:00:57.415Z,0.46
2022-12-12T04:03:55.488Z,0.42
2022-12-12T04:06:33.608Z,0.40
2022-12-12T04:09:19.847Z,0.43
2022-12-12T04:12:27.214Z,0.44
2022-12-12T04:15:10.217Z,0.43
2022-12-12T04:18:03.274Z,0.44
2022-12-12T04:20:56.117Z,0.43
2022-12-12T04:23:40.552Z,0.45
2022-12-12T04:26:34.700Z,0.43
2022-12-12T04:29:34.244Z,0.42
2022-12-12T04:32:21.549Z,0.45
2022-12-12T04:34:50.700Z,0.42
2022-12-12T04:37:25.843Z,0.42
2022-12-12T04:39:54.201Z,0.42
2022-12-12T04:42:24.259Z,0.43
2022-12-12T04:44:55.395Z,0.38
2022-12-12T04:47:23.118Z,0.38
2022-12-12T04:49:51.811Z,0.40
2022-12-12T04:52:20.926Z,0.43
2022-12-12T04:54:51.116Z,0.46
2022-12-12T04:57:23.938Z,0.46
2022-12-12T04:59:50.704Z,0.41
2022-12-12T05:02:39.500Z,0.43
2022-12-12T05:05:15.191Z,0.44
2022-12-12T05:07:45.720Z,0.46
2022-12-12T05:10:15.429Z,0.45
2022-12-12T05:12:47.534Z,0.42
2022-12-12T05:15:15.587Z,0.42
2022-12-12T05:17:48.337Z,0.44
2022-12-12T05:20:15.618Z,0.45
2022-12-12T05:22:42.065Z,0.47
2022-12-12T05:25:08.916Z,0.43
2022-12-12T05:27:35.784Z,0.41
2022-12-12T05:30:02.258Z,0.27
2022-12-12T05:32:28.623Z,0.30
2022-12-12T05:34:55.005Z,0.36
2022-12-12T05:37:21.512Z,0.34
2022-12-12T05:39:47.895Z,0.31
2022-12-12T05:42:14.279Z,0.35
2022-12-12T05:44:40.709Z,0.33
2022-12-12T05:47:07.204Z,0.30
2022-12-12T05:49:33.600Z,0.24
2022-12-12T05:51:59.973Z,0.23
2022-12-12T05:54:26.306Z,0.16
2022-12-12T05:56:52.698Z,0.09
2022-12-12T05:59:19.111Z,0.16
2022-12-12T06:01:45.512Z,0.19
2022-12-12T06:04:11.955Z,0.20
2022-12-12T06:06:38.355Z,0.20
2022-12-12T06:09:04.699Z,0.17
2022-12-12T06:11:31.081Z,0.18
2022-12-12T06:13:57.395Z,0.11
2022-12-12T06:16:23.733Z,0.09
2022-12-12T06:18:52.238Z,0.16
2022-12-12T06:21:19.020Z,0.06
2022-12-12T06:23:45.385Z,0.07
2022-12-12T06:26:13.523Z,0.07
2022-12-12T06:28:40.284Z,0.10
2022-12-12T06:31:11.574Z,0.08
2022-12-12T06:33:39.456Z,0.09
2022-12-12T06:36:16.649Z,0.10
2022-12-12T06:38:43.100Z,0.09
2022-12-12T06:41:12.844Z,0.05
2022-12-12T06:43:39.732Z,0.00
2022-12-12T06:46:08.314Z,0.04
2022-12-12T06:48:35.716Z,0.08
2022-12-12T06:51:10.268Z,0.07
2022-12-12T06:53:37.555Z,0.07
2022-12-12T06:56:14.188Z,0.05
2022-12-12T06:58:40.662Z,0.03
2022-12-12T07:01:08.204Z,0.09
2022-12-12T07:03:34.580Z,0.11
2022-12-12T07:06:01.439Z,0.08
2022-12-12T07:08:28.290Z,0.03
2022-12-12T07:10:55.889Z,0.02
2022-12-12T07:13:22.865Z,-0.03
2022-12-12T07:15:50.449Z,-0.03
2022-12-12T07:18:18.382Z,-0.08
2022-12-12T07:20:46.221Z,-0.08
2022-12-12T07:23:13.795Z,-0.18
2022-12-12T07:25:42.062Z,-0.15
2022-12-12T07:28:12.628Z,-0.17
2022-12-12T07:30:40.950Z,-0.29
2022-12-12T07:33:08.313Z,-0.39
2022-12-12T07:35:35.200Z,-0.46
2022-12-12T07:38:02.133Z,-0.63
2022-12-12T07:40:28.683Z,-0.64
2022-12-12T07:42:55.178Z,-0.59
2022-12-12T07:45:22.047Z,-0.67
2022-12-12T07:47:48.637Z,-0.66
2022-12-12T07:50:15.060Z,-0.69
2022-12-12T07:52:41.742Z,-0.73
2022-12-12T07:55:08.588Z,-0.66
2022-12-12T07:57:35.008Z,-0.63
2022-12-12T08:00:01.515Z,-0.68
2022-12-12T08:02:27.878Z,-0.70
2022-12-12T08:04:54.375Z,-0.79
2022-12-12T08:07:20.778Z,-0.73
2022-12-12T08:09:47.127Z,-0.75
2022-12-12T08:12:13.568Z,-0.75
2022-12-12T08:14:40.020Z,-0.77
2022-12-12T08:17:06.425Z,-0.86
2022-12-12T08:19:33.313Z,-0.87
2022-12-12T08:21:59.666Z,-0.77
2022-12-12T08:24:26.230Z,-0.80
2022-12-12T08:26:52.777Z,-0.83
2022-12-12T08:29:19.283Z,-0.83
2022-12-12T08:31:46.164Z,-0.76
2022-12-12T08:34:12.630Z,-0.80
2022-12-12T08:36:39.446Z,-0.74
2022-12-12T08:39:09.238Z,-0.74
2022-12-12T08:41:37.557Z,-0.68
2022-12-12T08:44:04.452Z,-0.68
2022-12-12T08:46:31.068Z,-0.68
2022-12-12T08:48:57.493Z,-0.57
2022-12-12T08:51:23.912Z,-0.51
2022-12-12T08:53:52.816Z,-0.44
2022-12-12T08:56:21.128Z,-0.37
2022-12-12T08:58:48.340Z,-0.26
2022-12-12T09:01:26.345Z,-0.18
2022-12-12T09:03:54.692Z,-0.16
2022-12-12T09:06:22.407Z,-0.03
2022-12-12T09:08:49.443Z,0.04
2022-12-12T09:11:16.766Z,0.09
2022-12-12T09:13:43.891Z,0.21
2022-12-12T09:16:11.465Z,0.26
2022-12-12T09:18:43.215Z,0.41
2022-12-12T09:21:14.476Z,0.53
2022-12-12T09:23:40.898Z,0.77
2022-12-12T09:26:08.764Z,0.96
2022-12-12T09:28:35.375Z,1.14
2022-12-12T09:31:08.261Z,1.38
2022-12-12T09:33:35.428Z,1.57
2022-12-12T09:36:04.890Z,1.77
2022-12-12T09:38:31.481Z,2.19
2022-12-12T09:41:12.667Z,2.53
2022-12-12T09:43:53.573Z,2.92
2022-12-12T09:46:35.987Z,3.58
2022-12-12T09:49:04.984Z,3.79
2022-12-12T09:51:31.721Z,3.98
2022-12-12T09:53:58.417Z,4.56
2022-12-12T09:56:31.752Z,4.93
2022-12-12T09:59:11.415Z,4.94
2022-12-12T10:01:52.584Z,5.33
2022-12-12T10:04:33.486Z,5.79
2022-12-12T10:07:22.667Z,5.74
2022-12-12T10:10:04.109Z,5.61
2022-12-12T10:12:33.031Z,5.92
2022-12-12T10:15:03.761Z,5.77
2022-12-12T10:17:34.483Z,6.19
2022-12-12T10:20:32.174Z,6.27
2022-12-12T10:23:04.580Z,6.59
2022-12-12T10:25:52.721Z,6.25
2022-12-12T10:28:21.360Z,6.35
2022-12-12T10:31:02.045Z,6.76
2022-12-12T10:33:46.458Z,6.99
2022-12-12T10:36:24.732Z,7.15
2022-12-12T10:39:01.600Z,7.58
2022-12-12T10:41:42.896Z,7.54
2022-12-12T10:44:15.392Z,7.79
2022-12-12T10:47:06.233Z,7.73
2022-12-12T10:49:33.778Z,8.05
2022-12-12T10:52:04.279Z,8.74
2022-12-12T10:54:36.079Z,8.83
2022-12-12T10:57:05.469Z,9.02
2022-12-12T10:59:40.188Z,9.18
2022-12-12T11:02:37.207Z,9.53
2022-12-12T11:05:06.962Z,9.83
2022-12-12T11:08:04.395Z,9.49
2022-12-12T11:10:36.702Z,9.84
2022-12-12T11:13:15.611Z,9.10
2022-12-12T11:15:50.821Z,9.18
2022-12-12T11:18:19.968Z,9.50
2022-12-12T11:20:56.467Z,9.62
2022-12-12T11:23:27.426Z,10.08
2022-12-12T11:25:59.852Z,10.43
2022-12-12T11:28:31.204Z,10.57
2022-12-12T11:31:23.800Z,11.16
2022-12-12T11:33:54.820Z,10.60
2022-12-12T11:36:28.567Z,10.54
2022-12-12T11:38:57.058Z,10.45
2022-12-12T11:41:24.229Z,10.55
2022-12-12T11:43:50.560Z,10.71
2022-12-12T11:46:19.761Z,11.17
2022-12-12T11:48:52.285Z,11.09
2022-12-12T11:51:33.812Z,11.05
2022-12-12T11:54:02.281Z,10.90
2022-12-12T11:56:57.510Z,10.83
2022-12-12T11:59:44.108Z,11.49
2022-12-12T12:02:43.781Z,11.69
2022-12-12T12:05:19.119Z,11.70
2022-12-12T12:07:51.453Z,11.07
2022-12-12T12:10:29.914Z,11.84
2022-12-12T12:13:43.815Z,12.03
2022-12-12T12:16:17.237Z,11.99
2022-12-12T12:19:03.061Z,11.61
2022-12-12T12:21:41.995Z,11.37
2022-12-12T12:24:24.545Z,11.06
2022-12-12T12:27:09.780Z,11.15
2022-12-12T12:29:36.092Z,11.51
2022-12-12T12:32:15.169Z,11.86
2022-12-12T12:34:56.476Z,11.88
2022-12-12T12:37:28.701Z,11.99
2022-12-12T12:40:08.228Z,12.21
2022-12-12T12:43:05.395Z,12.00
2022-12-12T12:45:49.308Z,11.66
2022-12-12T12:48:24.437Z,11.59
2022-12-12T12:51:21.526Z,11.90
2022-12-12T12:54:08.285Z,11.75
2022-12-12T12:56:46.572Z,12.04
2022-12-12T12:59:23.190Z,11.89
2022-12-12T13:01:53.485Z,12.06
2022-12-12T13:04:31.676Z,12.31
2022-12-12T13:07:34.874Z,11.31
2022-12-12T13:10:09.015Z,11.93
2022-12-12T13:12:52.419Z,11.74
2022-12-12T13:15:27.253Z,11.83
2022-12-12T13:18:13.637Z,11.42
2022-12-12T13:20:49.649Z,11.85
2022-12-12T13:23:23.501Z,11.46
2022-12-12T13:25:58.920Z,11.64
2022-12-12T13:28:36.511Z,11.52
2022-12-12T13:31:19.159Z,11.36
2022-12-12T13:33:50.535Z,11.09
2022-12-12T13:36:30.007Z,11.21
2022-12-12T13:39:00.307Z,10.48
2022-12-12T13:41:27.238Z,9.88
2022-12-12T13:43:59.194Z,9.42
2022-12-12T13:46:28.481Z,8.70
2022-12-12T13:49:06.763Z,8.54
2022-12-12T13:51:38.164Z,7.54
2022-12-12T13:54:12.654Z,7.19
2022-12-12T13:56:58.186Z,6.94
2022-12-12T13:59:27.386Z,6.25
2022-12-12T14:01:59.599Z,6.17
2022-12-12T14:04:29.768Z,5.62
2022-12-12T14:07:17.371Z,5.17
2022-12-12T14:09:49.310Z,4.90
2022-12-12T14:12:32.196Z,4.77
2022-12-12T14:15:03.304Z,4.53
2022-12-12T14:17:36.764Z,4.17
2022-12-12T14:20:07.042Z,4.01
2022-12-12T14:22:36.420Z,4.10
2022-12-12T14:25:12.142Z,4.04
2022-12-12T14:27:50.518Z,3.66
2022-12-12T14:30:21.183Z,3.77
2022-12-12T14:32:59.564Z,3.72
2022-12-12T14:35:43.307Z,3.69
2022-12-12T14:38:37.220Z,3.48
2022-12-12T14:41:10.163Z,3.50
2022-12-12T14:43:42.220Z,3.50
2022-12-12T14:46:17.479Z,3.32
2022-12-12T14:48:44.733Z,3.21
2022-12-12T14:51:29.835Z,3.20
2022-12-12T14:53:58.523Z,2.84
2022-12-12T14:56:29.811Z,2.47
2022-12-12T14:59:04.671Z,2.44
2022-12-12T15:01:47.369Z,2.15
2022-12-12T15:04:27.823Z,1.97
2022-12-12T15:06:54.838Z,1.84
2022-12-12T15:09:25.976Z,1.66
2022-12-12T15:11:54.987Z,1.60
2022-12-12T15:14:27.977Z,1.47
2022-12-12T15:17:07.941Z,1.24
2022-12-12T15:19:40.863Z,1.17
2022-12-12T15:22:30.089Z,0.99
2022-12-12T15:25:01.979Z,0.86
2022-12-12T15:27:39.994Z,0.69
2022-12-12T15:30:17.940Z,0.67
2022-12-12T15:32:48.171Z,0.68
2022-12-12T15:35:19.425Z,0.65
2022-12-12T15:37:55.953Z,0.56
2022-12-12T15:40:26.478Z,0.46
2022-12-12T15:42:55.321Z,0.34
2022-12-12T15:45:30.507Z,0.13
2022-12-12T15:47:57.343Z,0.26
2022-12-12T15:50:51.630Z,0.21
2022-12-12T15:53:55.486Z,0.17
2022-12-12T15:56:21.821Z,0.16
2022-12-12T15:58:52.014Z,0.08
2022-12-12T16:01:24.132Z,0.10
2022-12-12T16:03:53.284Z,-0.10
2022-12-12T16:06:23.788Z,-0.23
2022-12-12T16:08:59.261Z,-0.33
2022-12-12T16:11:33.108Z,-0.22
2022-12-12T16:13:59.937Z,-0.20
2022-12-12T16:16:47.984Z,-0.26
2022-12-12T16:19:42.135Z,-0.31
2022-12-12T16:22:33.494Z,-0.48
2022-12-12T16:25:32.519Z,-0.41
2022-12-12T16:28:02.158Z,-0.51
2022-12-12T16:30:28.971Z,-0.55
2022-12-12T16:32:55.326Z,-0.44
2022-12-12T16:35:24.324Z,-0.52
2022-12-12T16:37:53.605Z,-0.50
2022-12-12T16:40:21.282Z,-0.56
2022-12-12T16:43:09.406Z,-0.57
2022-12-12T16:45:37.527Z,-0.72
2022-12-12T16:48:15.419Z,-0.71
2022-12-12T16:50:42.183Z,-0.75
2022-12-12T16:53:08.884Z,-0.73
2022-12-12T16:55:37.306Z,-0.77
2022-12-12T16:58:03.844Z,-0.81
2022-12-12T17:00:30.344Z,-0.79
2022-12-12T17:02:56.753Z,-0.89
2022-12-12T17:05:25.045Z,-0.87
2022-12-12T17:07:52.671Z,-0.88
2022-12-12T17:10:21.103Z,-0.96
2022-12-12T17:12:47.586Z,-0.91
2022-12-12T17:15:20.100Z,-0.99
2022-12-12T17:17:46.874Z,-1.01
2022-12-12T17:20:14.104Z,-1.01
2022-12-12T17:22:40.785Z,-1.14
2022-12-12T17:25:08.443Z,-1.11
2022-12-12T17:27:35.994Z,-1.15
2022-12-12T17:30:03.170Z,-1.20
2022-12-12T17:32:30.275Z,-1.17
2022-12-12T17:34:57.023Z,-1.12
2022-12-12T17:37:24.336Z,-1.20
2022-12-12T17:39:50.732Z,-1.22
2022-12-12T17:42:17.271Z,-1.31
2022-12-12T17:44:43.947Z,-1.28
2022-12-12T17:47:10.776Z,-1.36
2022-12-12T17:49:37.428Z,-1.34
2022-12-12T17:52:04.481Z,-1.33
2022-12-12T17:54:30.928Z,-1.37
2022-12-12T17:56:57.278Z,-1.42
2022-12-12T17:59:23.652Z,-1.48
2022-12-12T18:01:53.894Z,-1.44
2022-12-12T18:04:27.408Z,-1.49
2022-12-12T18:06:54.682Z,-1.50
2022-12-12T18:09:21.061Z,-1.57
2022-12-12T18:11:47.779Z,-1.48
2022-12-12T18:14:16.035Z,-1.56
2022-12-12T18:16:44.813Z,-1.55
2022-12-12T18:19:11.328Z,-1.64
2022-12-12T18:24:25.754Z,-1.63
2022-12-12T18:26:53.922Z,-1.69
2022-12-12T18:29:20.480Z,-1.69
2022-12-12T18:31:46.839Z,-1.72
2022-12-12T18:34:13.640Z,-1.69
2022-12-12T18:36:40.036Z,-1.72
2022-12-12T18:39:07.012Z,-1.75
2022-12-12T18:41:36.590Z,-1.76
2022-12-12T18:44:06.161Z,-1.78
2022-12-12T18:46:38.748Z,-1.79
2022-12-12T18:49:09.428Z,-1.78
2022-12-12T18:51:36.284Z,-1.81
2022-12-12T18:54:09.414Z,-1.85
2022-12-12T18:56:40.397Z,-1.86
2022-12-12T18:59:07.016Z,-1.84
2022-12-12T19:01:35.274Z,-1.89
2022-12-12T19:04:09.015Z,-1.99
2022-12-12T19:06:38.272Z,-2.02
2022-12-12T19:09:11.977Z,-1.92
2022-12-12T19:11:38.758Z,-1.88
2022-12-12T19:14:07.767Z,-1.98
2022-12-12T19:16:34.206Z,-1.97
2022-12-12T19:19:01.721Z,-2.01
2022-12-12T19:21:28.280Z,-2.11
2022-12-12T19:23:54.951Z,-2.16
2022-12-12T19:26:27.824Z,-2.11
2022-12-12T19:28:59.558Z,-2.12
2022-12-12T19:31:26.129Z,-2.03
2022-12-12T19:33:52.549Z,-2.09
2022-12-12T19:36:26.985Z,-2.17
2022-12-12T19:38:54.397Z,-2.14
2022-12-12T19:41:22.131Z,-2.20
2022-12-12T19:43:50.070Z,-2.14
2022-12-12T19:46:19.184Z,-2.24
2022-12-12T19:48:45.905Z,-2.25
2022-12-12T19:51:20.011Z,-2.42
2022-12-12T19:53:49.417Z,-2.26
2022-12-12T19:56:20.229Z,-2.40
2022-12-12T19:58:47.115Z,-2.32
2022-12-12T20:01:20.697Z,-2.25
2022-12-12T20:03:52.611Z,-2.26
2022-12-12T20:06:19.220Z,-2.24
2022-12-12T20:08:46.496Z,-2.34
2022-12-12T20:11:18.495Z,-2.32
2022-12-12T20:16:48.254Z,-2.34
2022-12-12T20:19:18.535Z,-2.36
2022-12-12T20:22:03.374Z,-2.37
2022-12-12T20:24:32.393Z,-2.36
2022-12-12T20:27:00.095Z,-2.43
2022-12-12T20:29:31.584Z,-2.32
2022-12-12T20:31:59.780Z,-2.37
2022-12-12T20:34:26.364Z,-2.42
2022-12-12T20:36:55.360Z,-2.41
2022-12-12T20:39:22.529Z,-2.48
2022-12-12T20:41:50.442Z,-2.44
2022-12-12T20:44:17.428Z,-2.44
2022-12-12T20:46:45.747Z,-2.47
2022-12-12T20:49:20.031Z,-2.51
2022-12-12T20:51:55.893Z,-2.47
2022-12-12T20:54:24.718Z,-2.53
2022-12-12T20:56:52.060Z,-2.42
2022-12-12T20:59:18.559Z,-2.61
2022-12-12T21:01:46.899Z,-2.54
2022-12-12T21:04:13.457Z,-2.64
2022-12-12T21:06:43.165Z,-2.59
2022-12-12T21:09:10.844Z,-2.53
2022-12-12T21:11:38.849Z,-2.62
2022-12-12T21:14:06.899Z,-2.64
2022-12-12T21:16:39.104Z,-2.56
2022-12-12T21:19:08.767Z,-2.59
2022-12-12T21:21:35.978Z,-2.65
2022-12-12T21:24:02.627Z,-2.64
2022-12-12T21:26:31.370Z,-2.67
2022-12-12T21:29:00.185Z,-2.61
2022-12-12T21:31:33.794Z,-2.69
2022-12-12T21:34:00.717Z,-2.75
2022-12-12T21:36:28.335Z,-2.71
2022-12-12T21:38:56.802Z,-2.76
2022-12-12T21:41:23.789Z,-2.72
2022-12-12T21:43:50.536Z,-2.84
2022-12-12T21:46:22.644Z,-2.77
2022-12-12T21:49:08.556Z,-2.75
2022-12-12T21:51:35.528Z,-2.74
2022-12-12T21:54:03.603Z,-2.74
2022-12-12T21:56:29.991Z,-2.85
2022-12-12T21:58:56.996Z,-2.97
2022-12-12T22:01:24.059Z,-2.87
2022-12-12T22:03:50.756Z,-2.88
2022-12-12T22:06:22.800Z,-2.93
2022-12-12T22:08:49.930Z,-2.91
2022-12-12T22:11:34.358Z,-2.93
2022-12-12T22:14:06.165Z,-2.90
2022-12-12T22:16:36.136Z,-2.91
2022-12-12T22:19:06.226Z,-2.95
2022-12-12T22:21:34.147Z,-2.96
2022-12-12T22:24:00.865Z,-2.99
2022-12-12T22:26:30.188Z,-3.05
2022-12-12T22:29:02.148Z,-3.06
2022-12-12T22:31:31.410Z,-2.95
2022-12-12T22:34:00.570Z,-2.97
2022-12-12T22:36:29.680Z,-3.00
2022-12-12T22:38:57.234Z,-2.96
2022-12-12T22:41:24.004Z,-2.94
2022-12-12T22:43:58.947Z,-2.97
2022-12-12T22:46:26.283Z,-2.95
2022-12-12T22:48:54.749Z,-2.92
2022-12-12T22:51:23.678Z,-2.95
2022-12-12T22:53:50.188Z,-2.99
2022-12-12T22:56:17.303Z,-2.97
2022-12-12T22:58:43.729Z,-2.93
2022-12-12T23:01:18.090Z,-2.87
2022-12-12T23:03:45.538Z,-2.94
2022-12-12T23:06:17.123Z,-2.91
2022-12-12T23:08:49.052Z,-2.96
2022-12-12T23:11:16.935Z,-2.97
2022-12-12T23:13:44.328Z,-3.02
2022-12-12T23:16:13.963Z,-2.97
2022-12-12T23:18:40.952Z,-3.04
2022-12-12T23:21:14.911Z,-2.98
2022-12-12T23:23:43.443Z,-2.98
2022-12-12T23:26:15.430Z,-3.01
2022-12-12T23:28:42.231Z,-2.95
2022-12-12T23:31:13.467Z,-3.02
2022-12-12T23:33:39.936Z,-3.08
2022-12-12T23:36:11.452Z,-2.99
2022-12-12T23:38:38.380Z,-3.11
2022-12-12T23:41:09.534Z,-3.12
2022-12-12T23:43:36.149Z,-3.17
2022-12-12T23:46:04.581Z,-3.24
2022-12-12T23:48:31.501Z,-3.15
2022-12-12T23:50:58.425Z,-3.27
2022-12-12T23:53:25.141Z,-3.23
2022-12-12T23:55:51.748Z,-3.26
2022-12-12T23:58:18.110Z,-3.22
